Time;durP1;ratioP1;P1;durP2;ratioP2;P2;SDS_P1;SDS_P2;PMS_P1;PMS_P2;Temp;Humidity;BMP_temperature;BMP_pressure;BME280_temperature;BME280_humidity;BME280_pressure;Samples;Min_cycle;Max_cycle;Signal;HPM_P1;HPM_P2
2023/12/19 00:01:20;;;;;;;34.57;21.60;;;;;;;;;;5053608;28;20418;-83
2023/12/19 00:03:46;;;;;;;29.40;19.30;;;;;;;;;;5054391;28;20411;-82
2023/12/19 00:06:12;;;;;;;29.60;19.83;;;;;;;;;;5054208;28;20470;-83
2023/12/19 00:08:38;;;;;;;30.13;19.93;;;;;;;;;;5054319;28;20407;-82
2023/12/19 00:11:04;;;;;;;34.63;21.40;;;;;;;;;;5054090;28;20406;-82
2023/12/19 00:13:31;;;;;;;33.70;19.70;;;;;;;;;;5069647;28;20418;-83
2023/12/19 00:15:57;;;;;;;30.47;19.70;;;;;;;;;;5069317;28;20432;-82
2023/12/19 00:18:23;;;;;;;28.07;17.40;;;;;;;;;;5069112;28;20418;-82
2023/12/19 00:20:52;;;;;;;33.23;17.97;;;;;;;;;;5069491;28;20790;-83
2023/12/19 00:23:18;;;;;;;34.47;18.67;;;;;;;;;;5054256;28;20406;-83
2023/12/19 00:25:44;;;;;;;34.13;21.10;;;;;;;;;;5054144;28;20480;-82
2023/12/19 00:28:10;;;;;;;33.57;20.70;;;;;;;;;;5053914;28;20417;-81
2023/12/19 00:30:36;;;;;;;30.07;19.20;;;;;;;;;;5053576;28;20416;-81
2023/12/19 00:33:02;;;;;;;32.47;20.90;;;;;;;;;;5053811;28;20476;-84
2023/12/19 00:35:29;;;;;;;33.50;19.30;;;;;;;;;;5053981;28;20528;-82
2023/12/19 00:37:55;;;;;;;32.10;19.80;;;;;;;;;;5053922;28;20415;-82
2023/12/19 00:40:21;;;;;;;31.20;19.10;;;;;;;;;;5053765;28;20493;-84
2023/12/19 00:42:46;;;;;;;29.60;18.93;;;;;;;;;;5053542;28;20404;-83
2023/12/19 00:45:15;;;;;;;28.30;19.07;;;;;;;;;;5053384;28;20481;-82
2023/12/19 00:47:41;;;;;;;29.23;17.63;;;;;;;;;;5053778;28;20895;-83
2023/12/19 00:50:10;;;;;;;30.80;18.90;;;;;;;;;;5053158;28;20568;-84
2023/12/19 00:52:36;;;;;;;27.50;18.30;;;;;;;;;;5053295;28;20418;-81
2023/12/19 00:55:02;;;;;;;30.67;19.20;;;;;;;;;;5068947;28;20410;-82
2023/12/19 00:57:28;;;;;;;29.60;18.20;;;;;;;;;;5053417;28;20431;-83
2023/12/19 00:59:54;;;;;;;28.57;16.87;;;;;;;;;;5050352;28;20798;-81
2023/12/19 01:02:20;;;;;;;28.70;17.40;;;;;;;;;;5053083;28;20187;-84
2023/12/19 01:04:49;;;;;;;24.63;16.90;;;;;;;;;;5053354;28;20406;-84
2023/12/19 01:07:15;;;;;;;29.30;17.80;;;;;;;;;;5053318;28;20898;-82
2023/12/19 01:09:40;;;;;;;28.90;17.57;;;;;;;;;;5068688;28;20513;-82
2023/12/19 01:12:06;;;;;;;25.87;15.97;;;;;;;;;;5052993;28;20176;-82
2023/12/19 01:14:32;;;;;;;24.70;14.77;;;;;;;;;;5052956;28;20825;-81
2023/12/19 01:16:58;;;;;;;25.10;14.83;;;;;;;;;;5053515;28;20507;-83
2023/12/19 01:19:24;;;;;;;26.53;15.47;;;;;;;;;;5053513;28;20795;-83
2023/12/19 01:21:50;;;;;;;30.37;17.50;;;;;;;;;;5053319;28;20413;-84
2023/12/19 01:24:16;;;;;;;24.37;15.57;;;;;;;;;;5053266;28;20406;-84
2023/12/19 01:26:44;;;;;;;22.87;12.93;;;;;;;;;;5053491;28;20473;-83
2023/12/19 01:29:10;;;;;;;29.23;14.83;;;;;;;;;;5052989;28;20413;-81
2023/12/19 01:31:37;;;;;;;23.27;15.67;;;;;;;;;;5037636;28;20450;-82
2023/12/19 01:34:03;;;;;;;24.67;14.93;;;;;;;;;;5030045;28;20499;-83
2023/12/19 01:36:29;;;;;;;22.17;15.10;;;;;;;;;;5053324;28;20422;-82
2023/12/19 01:38:57;;;;;;;24.30;14.73;;;;;;;;;;5053095;28;20421;-83
2023/12/19 01:41:23;;;;;;;23.93;14.60;;;;;;;;;;5052839;28;20430;-82
2023/12/19 01:43:49;;;;;;;19.90;13.07;;;;;;;;;;5053221;28;20433;-81
2023/12/19 01:46:17;;;;;;;25.67;14.63;;;;;;;;;;5052671;28;20976;-83
2023/12/19 01:48:44;;;;;;;25.10;13.77;;;;;;;;;;5068270;28;20421;-82
2023/12/19 01:51:11;;;;;;;18.83;11.77;;;;;;;;;;5052641;28;20442;-84
2023/12/19 01:53:38;;;;;;;23.63;14.47;;;;;;;;;;5052556;28;21001;-83
2023/12/19 01:56:04;;;;;;;20.93;12.40;;;;;;;;;;5052602;28;20748;-83
2023/12/19 01:58:30;;;;;;;23.53;12.33;;;;;;;;;;5052568;28;20408;-83
2023/12/19 02:00:56;;;;;;;19.30;11.60;;;;;;;;;;5052203;28;20409;-83
2023/12/19 02:03:22;;;;;;;18.83;10.70;;;;;;;;;;5052325;28;20860;-84
2023/12/19 02:05:51;;;;;;;16.37;11.27;;;;;;;;;;5052469;28;20574;-83
2023/12/19 02:08:17;;;;;;;17.83;10.73;;;;;;;;;;5052374;28;20413;-83
2023/12/19 02:10:46;;;;;;;18.77;12.60;;;;;;;;;;5070143;28;20832;-84
2023/12/19 02:13:11;;;;;;;18.27;11.70;;;;;;;;;;5056512;28;20550;-83
2023/12/19 02:15:37;;;;;;;16.03;9.70;;;;;;;;;;5056134;28;20874;-82
2023/12/19 02:18:33;;;;;;;13.23;9.40;;;;;;;;;;5071799;28;20419;-83
2023/12/19 02:20:59;;;;;;;17.77;10.80;;;;;;;;;;5041689;28;20438;-83
2023/12/19 02:23:25;;;;;;;20.90;10.13;;;;;;;;;;5055902;28;20823;-83
2023/12/19 02:25:51;;;;;;;15.03;9.07;;;;;;;;;;5056300;28;20470;-83
2023/12/19 02:28:17;;;;;;;12.90;8.30;;;;;;;;;;5056361;28;20429;-83
2023/12/19 02:30:43;;;;;;;14.07;8.90;;;;;;;;;;5071429;28;20986;-83
2023/12/19 02:33:09;;;;;;;13.60;8.40;;;;;;;;;;5071308;28;20469;-82
2023/12/19 02:35:35;;;;;;;13.50;8.37;;;;;;;;;;5056195;28;20420;-84
2023/12/19 02:38:01;;;;;;;13.37;8.70;;;;;;;;;;5056112;28;20429;-82
2023/12/19 02:40:27;;;;;;;10.83;8.47;;;;;;;;;;5055918;28;20431;-83
2023/12/19 02:42:53;;;;;;;11.77;8.47;;;;;;;;;;5055908;28;20199;-82
2023/12/19 02:45:19;;;;;;;17.93;9.87;;;;;;;;;;5055529;28;20503;-82
2023/12/19 02:47:45;;;;;;;18.40;11.37;;;;;;;;;;5055624;28;20421;-82
2023/12/19 02:50:11;;;;;;;14.60;9.50;;;;;;;;;;5055827;28;20403;-82
2023/12/19 02:52:37;;;;;;;15.57;9.60;;;;;;;;;;5055766;28;20864;-82
2023/12/19 02:55:04;;;;;;;13.90;10.30;;;;;;;;;;5055715;28;20781;-83
2023/12/19 02:57:30;;;;;;;17.37;10.67;;;;;;;;;;5071174;28;20434;-85
2023/12/19 02:59:56;;;;;;;14.10;9.67;;;;;;;;;;5055220;28;20414;-83
2023/12/19 03:02:22;;;;;;;18.43;10.90;;;;;;;;;;5055632;28;20895;-84
2023/12/19 03:04:47;;;;;;;18.30;10.80;;;;;;;;;;5071036;28;20183;-86
2023/12/19 03:07:14;;;;;;;18.50;11.77;;;;;;;;;;5070916;28;20690;-84
2023/12/19 03:09:40;;;;;;;17.03;10.67;;;;;;;;;;5055280;28;20413;-84
2023/12/19 03:12:06;;;;;;;16.83;11.00;;;;;;;;;;5071039;28;20423;-83
2023/12/19 03:14:36;;;;;;;17.60;11.80;;;;;;;;;;5054832;28;20659;-86
2023/12/19 03:17:03;;;;;;;17.73;11.53;;;;;;;;;;5055121;28;20461;-84
2023/12/19 03:19:29;;;;;;;18.70;12.00;;;;;;;;;;5055440;28;20774;-86
2023/12/19 03:21:54;;;;;;;21.10;12.57;;;;;;;;;;5054409;28;20432;-85
2023/12/19 03:24:21;;;;;;;19.87;11.27;;;;;;;;;;5055053;28;20426;-84
2023/12/19 03:26:47;;;;;;;15.10;10.40;;;;;;;;;;5053951;28;20511;-84
2023/12/19 03:29:16;;;;;;;15.70;12.17;;;;;;;;;;5054650;28;20479;-87
2023/12/19 03:31:45;;;;;;;14.97;11.07;;;;;;;;;;5055345;28;20411;-87
2023/12/19 03:34:11;;;;;;;16.43;10.53;;;;;;;;;;5054985;28;20458;-85
2023/12/19 03:36:36;;;;;;;16.33;11.03;;;;;;;;;;5054038;28;20426;-84
2023/12/19 03:39:03;;;;;;;13.90;8.83;;;;;;;;;;5055255;28;20522;-83
2023/12/19 03:41:29;;;;;;;13.73;8.43;;;;;;;;;;5055019;28;20426;-85
2023/12/19 03:43:55;;;;;;;13.40;9.20;;;;;;;;;;5053718;28;21169;-84
2023/12/19 03:46:21;;;;;;;15.37;8.93;;;;;;;;;;5054885;28;20482;-85
2023/12/19 03:48:47;;;;;;;14.87;9.37;;;;;;;;;;5054957;28;20407;-86
2023/12/19 03:51:13;;;;;;;13.53;8.50;;;;;;;;;;5054908;28;20422;-87
2023/12/19 03:53:39;;;;;;;11.63;7.80;;;;;;;;;;5053497;28;20418;-84
2023/12/19 03:56:05;;;;;;;16.13;9.40;;;;;;;;;;5054697;28;20432;-84
2023/12/19 03:58:31;;;;;;;10.03;7.13;;;;;;;;;;5054806;28;20755;-86
2023/12/19 04:00:57;;;;;;;13.00;9.20;;;;;;;;;;5054326;28;20463;-84
2023/12/19 04:03:23;;;;;;;11.47;8.70;;;;;;;;;;5054656;28;20226;-85
2023/12/19 04:05:49;;;;;;;15.70;8.83;;;;;;;;;;5054574;28;20470;-86
2023/12/19 04:08:18;;;;;;;12.67;7.90;;;;;;;;;;5054424;28;20564;-86
2023/12/19 04:10:44;;;;;;;13.43;7.93;;;;;;;;;;5054455;28;20414;-87
2023/12/19 04:13:10;;;;;;;11.20;7.40;;;;;;;;;;5054467;28;20402;-85
2023/12/19 04:15:35;;;;;;;14.23;8.30;;;;;;;;;;5052800;28;20426;-83
2023/12/19 04:18:01;;;;;;;14.70;8.87;;;;;;;;;;5053059;28;20478;-87
2023/12/19 04:20:27;;;;;;;13.83;8.90;;;;;;;;;;5054277;28;20426;-87
2023/12/19 04:22:53;;;;;;;14.13;10.00;;;;;;;;;;5054322;28;20419;-86
2023/12/19 04:25:19;;;;;;;14.13;10.20;;;;;;;;;;5054052;28;20458;-85
2023/12/19 04:27:45;;;;;;;12.33;8.23;;;;;;;;;;5054207;28;20494;-85
2023/12/19 04:30:11;;;;;;;13.50;7.23;;;;;;;;;;5053762;28;20904;-83
2023/12/19 04:32:37;;;;;;;10.90;7.40;;;;;;;;;;5053853;28;20937;-86
2023/12/19 04:35:04;;;;;;;12.80;7.43;;;;;;;;;;5054141;28;20441;-84
2023/12/19 04:37:29;;;;;;;12.70;8.40;;;;;;;;;;5053959;28;20421;-85
2023/12/19 04:39:57;;;;;;;13.53;8.60;;;;;;;;;;5053848;28;20423;-85
2023/12/19 04:42:23;;;;;;;9.70;6.87;;;;;;;;;;5052657;28;20426;-84
2023/12/19 04:44:49;;;;;;;14.50;8.20;;;;;;;;;;5053401;28;20856;-84
2023/12/19 04:47:15;;;;;;;14.17;8.67;;;;;;;;;;5053830;28;20414;-83
2023/12/19 04:49:40;;;;;;;9.00;5.47;;;;;;;;;;5053842;28;20417;-84
2023/12/19 04:52:06;;;;;;;10.70;6.27;;;;;;;;;;5053581;28;20415;-84
2023/12/19 04:54:33;;;;;;;8.97;6.13;;;;;;;;;;5053555;28;20918;-84
2023/12/19 04:56:59;;;;;;;9.13;7.23;;;;;;;;;;5053643;28;20594;-83
2023/12/19 04:59:28;;;;;;;11.27;7.60;;;;;;;;;;5051888;28;20453;-85
2023/12/19 05:01:54;;;;;;;9.77;6.17;;;;;;;;;;5053509;28;20171;-83
2023/12/19 05:04:20;;;;;;;8.83;5.80;;;;;;;;;;5052036;28;20434;-84
2023/12/19 05:06:46;;;;;;;11.87;6.10;;;;;;;;;;5053272;28;20468;-86
2023/12/19 05:09:11;;;;;;;10.53;6.33;;;;;;;;;;5053369;28;20406;-85
2023/12/19 05:11:37;;;;;;;11.53;7.47;;;;;;;;;;5053318;28;20414;-86
2023/12/19 05:14:03;;;;;;;9.10;5.77;;;;;;;;;;5052557;28;20417;-86
2023/12/19 05:16:29;;;;;;;10.70;6.70;;;;;;;;;;5052529;28;20479;-86
2023/12/19 05:18:55;;;;;;;10.53;5.73;;;;;;;;;;5053322;28;20407;-87
2023/12/19 05:21:24;;;;;;;8.93;6.60;;;;;;;;;;5052550;28;20975;-85
2023/12/19 05:23:50;;;;;;;12.63;6.80;;;;;;;;;;5053030;28;20472;-84
2023/12/19 05:26:16;;;;;;;9.63;6.60;;;;;;;;;;5052480;28;20470;-87
2023/12/19 05:28:42;;;;;;;9.73;5.30;;;;;;;;;;5052506;28;20914;-86
2023/12/19 05:31:09;;;;;;;9.83;5.93;;;;;;;;;;5053504;28;20501;-87
2023/12/19 05:33:35;;;;;;;10.20;6.90;;;;;;;;;;5011291;28;20950;-83
2023/12/19 05:36:01;;;;;;;8.07;5.20;;;;;;;;;;5053250;28;20917;-87
2023/12/19 05:38:27;;;;;;;8.27;5.70;;;;;;;;;;5052165;28;20411;-86
2023/12/19 05:40:57;;;;;;;7.10;4.97;;;;;;;;;;5053357;28;20419;-83
2023/12/19 05:43:23;;;;;;;9.50;5.47;;;;;;;;;;5053261;28;20404;-84
2023/12/19 05:45:49;;;;;;;5.97;3.70;;;;;;;;;;5051269;28;20481;-90
2023/12/19 05:48:20;;;;;;;9.23;5.27;;;;;;;;;;5053468;28;20411;-89
2023/12/19 05:50:47;;;;;;;7.47;3.80;;;;;;;;;;5053756;28;20422;-83
2023/12/19 05:53:12;;;;;;;7.13;4.43;;;;;;;;;;5053384;28;20496;-83
2023/12/19 05:55:39;;;;;;;9.67;4.97;;;;;;;;;;5053123;28;20906;-83
2023/12/19 05:58:05;;;;;;;8.07;5.33;;;;;;;;;;5053595;28;20782;-83
2023/12/19 06:00:31;;;;;;;7.83;5.00;;;;;;;;;;5052539;28;20417;-85
2023/12/19 06:02:57;;;;;;;7.83;4.40;;;;;;;;;;5051636;28;20428;-84
2023/12/19 06:05:24;;;;;;;5.53;2.97;;;;;;;;;;5052882;28;20465;-89
2023/12/19 06:07:49;;;;;;;7.53;4.40;;;;;;;;;;5053594;28;20910;-87
2023/12/19 06:10:15;;;;;;;7.43;4.30;;;;;;;;;;5053008;28;20508;-84
2023/12/19 06:12:41;;;;;;;6.80;3.70;;;;;;;;;;5052798;28;20175;-85
2023/12/19 06:15:12;;;;;;;5.37;3.50;;;;;;;;;;5052531;28;20421;-84
2023/12/19 06:17:42;;;;;;;4.50;2.77;;;;;;;;;;5052888;28;20489;-88
2023/12/19 06:20:10;;;;;;;4.33;2.33;;;;;;;;;;5051430;28;20465;-86
2023/12/19 06:22:36;;;;;;;5.17;2.47;;;;;;;;;;5052664;28;20921;-86
2023/12/19 06:25:02;;;;;;;5.50;2.67;;;;;;;;;;5052504;28;20414;-87
2023/12/19 06:27:28;;;;;;;3.50;1.90;;;;;;;;;;5052344;28;20484;-87
2023/12/19 06:29:57;;;;;;;3.63;2.67;;;;;;;;;;5052395;28;20502;-88
2023/12/19 06:32:23;;;;;;;4.97;2.17;;;;;;;;;;5048408;28;20423;-85
2023/12/19 06:34:49;;;;;;;3.13;1.90;;;;;;;;;;5010624;28;20435;-85
2023/12/19 06:37:15;;;;;;;3.17;1.33;;;;;;;;;;5032496;28;20964;-84
2023/12/19 06:39:41;;;;;;;4.00;2.77;;;;;;;;;;5032683;28;20525;-85
2023/12/19 06:42:07;;;;;;;4.73;1.87;;;;;;;;;;5032526;28;20418;-85
2023/12/19 06:44:32;;;;;;;3.60;1.97;;;;;;;;;;5032304;28;20427;-86
2023/12/19 06:46:58;;;;;;;3.17;1.40;;;;;;;;;;5032682;28;20523;-85
2023/12/19 06:49:24;;;;;;;3.30;1.20;;;;;;;;;;5032825;28;20411;-88
2023/12/19 06:51:51;;;;;;;3.17;2.17;;;;;;;;;;5031247;28;20415;-84
2023/12/19 06:54:17;;;;;;;2.30;1.73;;;;;;;;;;5032550;28;20471;-84
2023/12/19 06:56:43;;;;;;;2.80;1.30;;;;;;;;;;5032799;28;20426;-83
2023/12/19 06:59:09;;;;;;;3.00;0.77;;;;;;;;;;5035861;28;20427;-88
2023/12/19 07:01:35;;;;;;;1.70;0.90;;;;;;;;;;5055702;28;20471;-83
2023/12/19 07:04:03;;;;;;;1.43;0.73;;;;;;;;;;5055397;28;20417;-83
2023/12/19 07:06:29;;;;;;;2.17;0.90;;;;;;;;;;5054382;28;20468;-82
2023/12/19 07:08:55;;;;;;;2.03;0.87;;;;;;;;;;5055992;28;20468;-83
2023/12/19 07:11:22;;;;;;;2.10;1.13;;;;;;;;;;5056002;28;20428;-82
2023/12/19 07:13:48;;;;;;;1.40;0.50;;;;;;;;;;5055739;28;20413;-83
2023/12/19 07:16:15;;;;;;;1.60;0.60;;;;;;;;;;5054975;28;20445;-88
2023/12/19 07:18:41;;;;;;;4.10;0.53;;;;;;;;;;5055846;28;20906;-84
2023/12/19 07:21:07;;;;;;;1.33;0.50;;;;;;;;;;5055992;28;20422;-88
2023/12/19 07:23:34;;;;;;;1.40;0.40;;;;;;;;;;5054280;28;21049;-86
2023/12/19 07:26:00;;;;;;;1.57;0.40;;;;;;;;;;5054294;28;20485;-85
2023/12/19 07:28:26;;;;;;;0.93;0.50;;;;;;;;;;5055449;28;20779;-88
2023/12/19 07:30:52;;;;;;;1.03;0.40;;;;;;;;;;5055808;28;20879;-87
2023/12/19 07:33:20;;;;;;;0.83;0.40;;;;;;;;;;5055740;28;20461;-87
2023/12/19 07:35:46;;;;;;;1.30;0.30;;;;;;;;;;5033786;28;20461;-84
2023/12/19 07:38:12;;;;;;;1.50;0.50;;;;;;;;;;5054253;28;20953;-85
2023/12/19 07:40:38;;;;;;;1.10;0.50;;;;;;;;;;5055545;28;20449;-86
2023/12/19 07:43:04;;;;;;;1.40;0.33;;;;;;;;;;5055829;28;20405;-86
2023/12/19 07:45:32;;;;;;;1.60;0.63;;;;;;;;;;5054228;28;21007;-86
2023/12/19 07:47:58;;;;;;;1.87;0.70;;;;;;;;;;5055339;28;20429;-86
2023/12/19 07:50:25;;;;;;;1.30;0.43;;;;;;;;;;5055357;28;20517;-86
2023/12/19 07:52:50;;;;;;;1.67;0.70;;;;;;;;;;5053941;28;20429;-87
2023/12/19 07:55:16;;;;;;;1.37;0.57;;;;;;;;;;5054999;28;20419;-86
2023/12/19 07:57:43;;;;;;;2.00;0.50;;;;;;;;;;5055091;28;20417;-87
2023/12/19 08:00:11;;;;;;;1.93;0.57;;;;;;;;;;5053362;28;20428;-84
2023/12/19 08:02:37;;;;;;;2.10;0.33;;;;;;;;;;5053447;28;20461;-86
2023/12/19 08:05:04;;;;;;;3.23;0.30;;;;;;;;;;5054127;28;20418;-86
2023/12/19 08:07:30;;;;;;;1.07;0.30;;;;;;;;;;5052872;28;20415;-86
2023/12/19 08:09:56;;;;;;;0.60;0.20;;;;;;;;;;5053127;28;20741;-86
2023/12/19 08:12:22;;;;;;;0.83;0.20;;;;;;;;;;5054184;28;20923;-85
2023/12/19 08:14:48;;;;;;;2.47;0.20;;;;;;;;;;5052957;28;20172;-86
2023/12/19 08:17:15;;;;;;;1.13;0.33;;;;;;;;;;5046218;28;20423;-87
2023/12/19 08:19:41;;;;;;;2.37;0.50;;;;;;;;;;5054635;28;20908;-87
2023/12/19 08:22:07;;;;;;;1.70;0.43;;;;;;;;;;5053552;28;20413;-88
2023/12/19 08:24:33;;;;;;;1.33;0.50;;;;;;;;;;5054686;28;20175;-88
2023/12/19 08:26:59;;;;;;;1.00;0.30;;;;;;;;;;5054999;28;20557;-89
2023/12/19 08:29:25;;;;;;;1.80;0.70;;;;;;;;;;5055064;28;20460;-91
2023/12/19 08:31:51;;;;;;;1.23;0.60;;;;;;;;;;5054239;28;20449;-90
2023/12/19 08:34:18;;;;;;;1.03;0.20;;;;;;;;;;5055405;28;20489;-89
2023/12/19 08:36:44;;;;;;;2.27;0.30;;;;;;;;;;5055056;28;20168;-90
2023/12/19 08:39:10;;;;;;;2.73;0.83;;;;;;;;;;5054102;28;20412;-91
2023/12/19 08:41:36;;;;;;;4.73;0.60;;;;;;;;;;5055268;28;20842;-91
2023/12/19 08:44:02;;;;;;;1.80;0.23;;;;;;;;;;5055523;28;20916;-90
2023/12/19 08:46:28;;;;;;;1.27;0.30;;;;;;;;;;5055491;28;20474;-91
2023/12/19 08:48:53;;;;;;;1.00;0.30;;;;;;;;;;5056052;28;20431;-90
2023/12/19 08:51:20;;;;;;;1.03;0.40;;;;;;;;;;5055439;28;20443;-88
2023/12/19 08:53:46;;;;;;;1.93;0.30;;;;;;;;;;5054733;28;20558;-88
2023/12/19 08:56:12;;;;;;;1.00;0.30;;;;;;;;;;5053919;28;20424;-87
2023/12/19 08:58:38;;;;;;;1.33;0.30;;;;;;;;;;5012397;28;20992;-81
2023/12/19 09:01:04;;;;;;;0.83;0.20;;;;;;;;;;5052064;28;20410;-89
2023/12/19 09:03:30;;;;;;;0.60;0.20;;;;;;;;;;5053793;28;20429;-88
2023/12/19 09:05:56;;;;;;;1.43;0.20;;;;;;;;;;5053882;28;20478;-87
2023/12/19 09:08:23;;;;;;;0.77;0.20;;;;;;;;;;5054013;28;20226;-90
2023/12/19 09:10:49;;;;;;;1.63;0.30;;;;;;;;;;5054516;28;20420;-89
2023/12/19 09:13:16;;;;;;;2.27;0.40;;;;;;;;;;5054185;28;20457;-87
2023/12/19 09:15:44;;;;;;;0.90;0.20;;;;;;;;;;5054394;28;20414;-89
2023/12/19 09:18:10;;;;;;;0.60;0.20;;;;;;;;;;5054216;28;20505;-86
2023/12/19 09:20:36;;;;;;;2.03;0.23;;;;;;;;;;5053221;28;20457;-89
2023/12/19 09:23:01;;;;;;;1.03;0.20;;;;;;;;;;5054171;28;20506;-89
2023/12/19 09:25:27;;;;;;;1.00;0.23;;;;;;;;;;5052603;28;20508;-87
2023/12/19 09:27:56;;;;;;;0.80;0.20;;;;;;;;;;5053457;28;20464;-88
2023/12/19 09:30:23;;;;;;;0.60;0.20;;;;;;;;;;5054437;28;20411;-89
2023/12/19 09:32:49;;;;;;;0.50;0.30;;;;;;;;;;5053546;28;20650;-90
2023/12/19 09:35:15;;;;;;;0.83;0.20;;;;;;;;;;5054503;28;20411;-89
2023/12/19 09:37:41;;;;;;;1.17;0.20;;;;;;;;;;5054268;28;20422;-89
2023/12/19 09:40:13;;;;;;;0.85;0.20;;;;;;;;;;5052821;28;20411;-89
2023/12/19 09:42:39;;;;;;;0.90;0.20;;;;;;;;;;5043997;28;20527;-85
2023/12/19 09:45:06;;;;;;;0.77;0.20;;;;;;;;;;5053922;28;20405;-88
2023/12/19 09:47:33;;;;;;;0.97;0.20;;;;;;;;;;5054694;28;20422;-90
2023/12/19 09:50:00;;;;;;;1.40;0.30;;;;;;;;;;5054394;28;20437;-89
2023/12/19 09:52:27;;;;;;;0.60;0.20;;;;;;;;;;5054154;28;20422;-90
2023/12/19 09:54:54;;;;;;;0.90;0.20;;;;;;;;;;5053917;28;20442;-89
2023/12/19 09:57:21;;;;;;;0.60;0.20;;;;;;;;;;5053882;28;20782;-88
2023/12/19 09:59:47;;;;;;;0.40;0.20;;;;;;;;;;5053575;28;20809;-88
2023/12/19 10:02:19;;;;;;;1.13;0.20;;;;;;;;;;5054024;28;20455;-89
2023/12/19 10:04:45;;;;;;;0.40;0.20;;;;;;;;;;5053875;28;20439;-87
2023/12/19 10:07:11;;;;;;;0.50;0.20;;;;;;;;;;5054139;28;20469;-89
2023/12/19 10:09:55;;;;;;;1.77;0.13;;;;;;;;;;5013129;28;20459;-88
2023/12/19 10:12:21;;;;;;;0.40;0.20;;;;;;;;;;5054345;28;20412;-88
2023/12/19 10:14:47;;;;;;;0.50;0.10;;;;;;;;;;5054058;28;20463;-89
2023/12/19 10:17:15;;;;;;;0.50;0.20;;;;;;;;;;5050072;28;20539;-85
2023/12/19 10:19:41;;;;;;;0.50;0.20;;;;;;;;;;5053074;28;20504;-89
2023/12/19 10:22:07;;;;;;;0.60;0.20;;;;;;;;;;5051931;28;20418;-88
2023/12/19 10:24:33;;;;;;;0.40;0.20;;;;;;;;;;5053434;28;20847;-81
2023/12/19 10:27:05;;;;;;;1.47;0.20;;;;;;;;;;5052374;28;20478;-88
2023/12/19 10:29:36;;;;;;;1.20;0.20;;;;;;;;;;5053129;28;20420;-89
2023/12/19 10:32:15;;;;;;;0.40;0.20;;;;;;;;;;5056894;28;20513;-87
2023/12/19 10:34:41;;;;;;;0.93;0.20;;;;;;;;;;5058116;28;20486;-86
2023/12/19 10:37:17;;;;;;;1.23;0.23;;;;;;;;;;5057181;28;20416;-89
2023/12/19 10:39:43;;;;;;;1.40;0.20;;;;;;;;;;5057171;28;20410;-90
2023/12/19 10:42:12;;;;;;;0.80;0.20;;;;;;;;;;5056985;28;20418;-85
2023/12/19 10:44:39;;;;;;;1.27;0.20;;;;;;;;;;5056157;28;20509;-90
2023/12/19 10:47:06;;;;;;;0.50;0.20;;;;;;;;;;5057429;28;20968;-88
2023/12/19 10:49:33;;;;;;;1.03;0.30;;;;;;;;;;5055777;28;20480;-80
2023/12/19 10:52:06;;;;;;;1.03;0.20;;;;;;;;;;5056294;28;20418;-86
2023/12/19 10:54:36;;;;;;;0.60;0.20;;;;;;;;;;5056594;28;20401;-81
2023/12/19 10:57:08;;;;;;;0.83;0.20;;;;;;;;;;5056523;28;20414;-81
2023/12/19 10:59:40;;;;;;;2.13;0.20;;;;;;;;;;5056148;28;20406;-85
2023/12/19 11:02:15;;;;;;;0.67;0.20;;;;;;;;;;5055195;28;20462;-87
2023/12/19 11:04:42;;;;;;;0.63;0.20;;;;;;;;;;5056349;28;20422;-87
2023/12/19 11:07:12;;;;;;;1.40;0.30;;;;;;;;;;5056161;28;20473;-81
2023/12/19 11:09:39;;;;;;;0.80;0.40;;;;;;;;;;5055023;28;20485;-81
2023/12/19 11:12:05;;;;;;;1.00;0.30;;;;;;;;;;5056183;28;20454;-83
2023/12/19 11:14:35;;;;;;;0.80;0.20;;;;;;;;;;5055757;28;20955;-80
2023/12/19 11:17:07;;;;;;;1.10;0.20;;;;;;;;;;5039692;28;20846;-81
2023/12/19 11:19:39;;;;;;;1.33;0.70;;;;;;;;;;5049416;28;20561;-80
2023/12/19 11:22:08;;;;;;;0.90;0.30;;;;;;;;;;5056059;28;20786;-80
2023/12/19 11:24:37;;;;;;;1.93;0.30;;;;;;;;;;5054456;28;20416;-80
2023/12/19 11:27:07;;;;;;;0.70;0.20;;;;;;;;;;5055626;28;20497;-80
2023/12/19 11:29:45;;;;;;;1.60;0.20;;;;;;;;;;5055435;28;20420;-81
2023/12/19 11:32:29;;;;;;;1.17;0.43;;;;;;;;;;5055660;28;20978;-80
2023/12/19 11:35:01;;;;;;;0.80;0.30;;;;;;;;;;5086719;22;20545;-82
2023/12/19 11:37:30;;;;;;;1.00;0.33;;;;;;;;;;5016800;28;20413;-89
2023/12/19 11:39:56;;;;;;;1.30;0.30;;;;;;;;;;5016532;28;20434;-82
2023/12/19 11:42:40;;;;;;;1.43;0.23;;;;;;;;;;5023536;28;20419;-83
2023/12/19 11:45:15;;;;;;;2.20;0.57;;;;;;;;;;5017523;28;20510;-82
2023/12/19 11:47:41;;;;;;;0.90;0.30;;;;;;;;;;5020219;28;20416;-84
2023/12/19 11:50:07;;;;;;;1.00;0.30;;;;;;;;;;5017727;28;20412;-82
2023/12/19 11:52:37;;;;;;;1.80;0.50;;;;;;;;;;5015744;28;20994;-82
2023/12/19 11:55:07;;;;;;;0.83;0.30;;;;;;;;;;5015887;28;21138;-81
2023/12/19 11:57:33;;;;;;;0.90;0.30;;;;;;;;;;4998032;28;20431;-81
2023/12/19 12:00:00;;;;;;;0.60;0.20;;;;;;;;;;5015841;28;20898;-82
2023/12/19 12:02:45;;;;;;;1.07;0.63;;;;;;;;;;5015788;28;20412;-83
2023/12/19 12:05:19;;;;;;;2.00;0.60;;;;;;;;;;5015241;28;20419;-82
2023/12/19 12:07:51;;;;;;;2.10;0.80;;;;;;;;;;4997771;28;20477;-83
2023/12/19 12:10:20;;;;;;;1.63;0.53;;;;;;;;;;5015151;28;20905;-84
2023/12/19 12:12:46;;;;;;;1.90;0.50;;;;;;;;;;5014774;28;20466;-83
2023/12/19 12:15:18;;;;;;;3.57;1.10;;;;;;;;;;5015178;28;20417;-87
2023/12/19 12:17:44;;;;;;;1.77;1.53;;;;;;;;;;4974403;28;20441;-84
2023/12/19 12:20:11;;;;;;;1.60;0.50;;;;;;;;;;5014848;28;20414;-82
2023/12/19 12:22:36;;;;;;;2.80;1.53;;;;;;;;;;5015231;28;20442;-82
2023/12/19 12:25:10;;;;;;;1.30;0.77;;;;;;;;;;5014845;28;20430;-88
2023/12/19 12:27:36;;;;;;;1.63;0.83;;;;;;;;;;5014478;28;20244;-84
2023/12/19 12:30:04;;;;;;;2.00;0.80;;;;;;;;;;4997603;28;20428;-82
2023/12/19 12:32:30;;;;;;;4.10;1.07;;;;;;;;;;5015087;28;20537;-82
2023/12/19 12:34:56;;;;;;;2.67;0.53;;;;;;;;;;4998022;28;20954;-82
2023/12/19 12:37:22;;;;;;;2.13;1.03;;;;;;;;;;5014856;28;20425;-82
2023/12/19 12:39:52;;;;;;;1.43;0.80;;;;;;;;;;5004871;28;20509;-85
2023/12/19 12:42:23;;;;;;;1.30;0.60;;;;;;;;;;5021174;28;20424;-82
2023/12/19 12:44:58;;;;;;;2.07;0.70;;;;;;;;;;5002423;28;20456;-81
2023/12/19 12:47:24;;;;;;;0.93;0.30;;;;;;;;;;5021423;28;20472;-84
2023/12/19 12:50:06;;;;;;;1.57;0.87;;;;;;;;;;5016557;28;20487;-83
2023/12/19 12:52:32;;;;;;;1.53;0.50;;;;;;;;;;5017933;28;20514;-82
2023/12/19 12:55:02;;;;;;;1.20;0.60;;;;;;;;;;5018667;28;20425;-86
2023/12/19 12:57:28;;;;;;;1.03;0.37;;;;;;;;;;5005603;28;20461;-85
2023/12/19 12:59:54;;;;;;;1.40;0.67;;;;;;;;;;5020332;28;20456;-81
2023/12/19 13:02:20;;;;;;;1.57;0.77;;;;;;;;;;4996895;28;20777;-83
2023/12/19 13:04:46;;;;;;;1.73;0.77;;;;;;;;;;5014634;28;20412;-83
2023/12/19 13:07:12;;;;;;;1.40;0.50;;;;;;;;;;5014772;28;20537;-82
2023/12/19 13:09:39;;;;;;;0.93;0.33;;;;;;;;;;5015022;28;20942;-83
2023/12/19 13:12:05;;;;;;;1.43;0.70;;;;;;;;;;5014795;28;20498;-82
2023/12/19 13:14:30;;;;;;;3.43;1.10;;;;;;;;;;5014121;28;20413;-82
2023/12/19 13:16:56;;;;;;;1.57;0.67;;;;;;;;;;5006620;28;20437;-81
2023/12/19 13:19:23;;;;;;;1.83;0.90;;;;;;;;;;4989240;28;20529;-81
2023/12/19 13:21:49;;;;;;;1.73;0.97;;;;;;;;;;5014702;28;20425;-81
2023/12/19 13:24:17;;;;;;;1.07;0.60;;;;;;;;;;5014547;28;20417;-82
2023/12/19 13:26:43;;;;;;;2.00;1.10;;;;;;;;;;4997080;28;20574;-81
2023/12/19 13:29:09;;;;;;;3.33;1.30;;;;;;;;;;5014703;28;20441;-81
2023/12/19 13:31:37;;;;;;;2.63;1.53;;;;;;;;;;4997303;28;20413;-82
2023/12/19 13:34:04;;;;;;;2.60;1.70;;;;;;;;;;5016173;28;21007;-81
2023/12/19 13:36:30;;;;;;;3.30;1.87;;;;;;;;;;5015153;28;20429;-82
2023/12/19 13:38:57;;;;;;;2.43;1.43;;;;;;;;;;5013632;28;20443;-82
2023/12/19 13:41:23;;;;;;;3.10;1.50;;;;;;;;;;5013819;28;20425;-81
2023/12/19 13:43:49;;;;;;;4.43;2.87;;;;;;;;;;5014742;28;20914;-88
2023/12/19 13:46:15;;;;;;;2.53;2.00;;;;;;;;;;5014916;28;20483;-83
2023/12/19 13:48:44;;;;;;;4.50;2.20;;;;;;;;;;4995920;28;20433;-80
2023/12/19 13:51:10;;;;;;;4.90;3.27;;;;;;;;;;5013331;28;20426;-82
2023/12/19 13:53:36;;;;;;;4.73;3.20;;;;;;;;;;5013581;28;20467;-81
2023/12/19 13:56:04;;;;;;;5.57;4.07;;;;;;;;;;5013528;28;20427;-82
2023/12/19 13:58:30;;;;;;;5.53;3.73;;;;;;;;;;4995473;28;20475;-81
2023/12/19 14:00:56;;;;;;;5.47;4.10;;;;;;;;;;5013436;28;20416;-81
2023/12/19 14:03:22;;;;;;;3.87;3.13;;;;;;;;;;5013389;28;20412;-83
2023/12/19 14:05:48;;;;;;;4.53;4.00;;;;;;;;;;5012877;28;20855;-82
2023/12/19 14:08:15;;;;;;;4.50;3.13;;;;;;;;;;5013323;28;20508;-81
2023/12/19 14:10:42;;;;;;;4.70;3.43;;;;;;;;;;5013187;28;20418;-82
2023/12/19 14:13:08;;;;;;;5.90;4.90;;;;;;;;;;4995301;28;20421;-83
2023/12/19 14:15:34;;;;;;;6.47;4.23;;;;;;;;;;5013199;28;20417;-83
2023/12/19 14:18:00;;;;;;;6.60;4.40;;;;;;;;;;5013221;28;20424;-81
2023/12/19 14:20:29;;;;;;;7.03;4.97;;;;;;;;;;5013234;28;20420;-82
2023/12/19 14:22:56;;;;;;;6.00;4.50;;;;;;;;;;5013262;28;20517;-83
2023/12/19 14:25:25;;;;;;;6.17;4.27;;;;;;;;;;5013020;28;20424;-82
2023/12/19 14:27:52;;;;;;;7.50;5.03;;;;;;;;;;4995129;28;20487;-81
2023/12/19 14:30:19;;;;;;;8.70;5.00;;;;;;;;;;5013225;28;20416;-82
2023/12/19 14:32:44;;;;;;;8.00;4.43;;;;;;;;;;5013381;28;20447;-82
2023/12/19 14:35:11;;;;;;;7.20;5.23;;;;;;;;;;5013138;28;20473;-82